Silver Sailing — VRIH8 — position and weather

sailwx.info

Track history (hours):
 
Tides and Currents Weather Stations Pressure Air Temp Water Temp Dewpoint Dewpoint Depression Visibility Wind Speed Wind Dir Waves Ship Positions

Silver Sailing

Last reported at 2018-Feb-23 05:00 UTC. Time now 2018-Feb-23 05:09 UTC.
Position N 33°49' E 131°30'.

Length 110 m; draft 7.8 m.

Type: Cargo ship. MMSI: 477861300.

Date/timePositionNaut miles runAvg speedWind from/ knotsBaromVisibWave heightAir tempDewpointWater temp
2018-Feb-23 05:00N 33°49' E 131°30'5 9.4
2018-Feb-23 04:30N 33°48' E 131°36'5 9.7
2018-Feb-23 04:00N 33°47' E 131°42'5 9.6
2018-Feb-23 03:30N 33°46' E 131°47'22 9.7
2018-Feb-23 01:12N 33°43' E 132°14'210.0
2018-Feb-23 00:58N 33°44' E 132°17'910.0
2018-Feb-23 00:07N 33°47' E 132°26'310.2
2018-Feb-22 23:51N 33°48' E 132°29'410.2
2018-Feb-22 23:30N 33°50' E 132°33'510.7
2018-Feb-22 23:00N 33°54' E 132°37'511.1
2018-Feb-22 22:31N 33°58' E 132°42'81 9.4
2018-Feb-22 13:57N 34°24' E 134°14'510.4
2018-Feb-22 13:30N 34°25' E 134°20'510.1
2018-Feb-22 13:00N 34°26' E 134°26'510.0
2018-Feb-22 12:30N 34°28' E 134°32'5 9.8
2018-Feb-22 12:00N 34°30' E 134°37'5 9.5
2018-Feb-22 11:30N 34°32' E 134°42'5 9.2
2018-Feb-22 11:00N 34°33' E 134°48'4 8.3
2018-Feb-22 10:31N 34°35' E 134°52'4 7.5
2018-Feb-22 10:01N 34°37' E 134°56'3 6.8
2018-Feb-22 09:30N 34°37' E 135°00'3 6.1
2018-Feb-22 09:01N 34°36' E 135°04'5 9.0
2018-Feb-22 08:30N 34°36' E 135°09'5 9.1
2018-Feb-22 08:00N 34°37' E 135°15'2 4.8
2018-Feb-22 07:30N 34°39' E 135°16'3 6.7
2018-Feb-22 07:00N 34°42' E 135°15'0 0.1
2018-Feb-22 06:30N 34°42' E 135°15'0 0.0
2018-Feb-22 06:00N 34°42' E 135°15'0 0.0
2018-Feb-22 05:30N 34°42' E 135°15'0 0.0
2018-Feb-22 05:00N 34°42' E 135°15'0 0.0
2018-Feb-22 04:30N 34°42' E 135°15'0 0.0
2018-Feb-22 04:00N 34°42' E 135°15'0 0.0
2018-Feb-22 03:30N 34°42' E 135°15'0 0.0
2018-Feb-22 03:00N 34°42' E 135°15'0 0.0
2018-Feb-22 02:27N 34°42' E 135°15'0 0.0
2018-Feb-22 02:00N 34°42' E 135°15'0 0.0
2018-Feb-22 01:30N 34°42' E 135°15'0 0.0
2018-Feb-22 01:00N 34°42' E 135°15'0 0.0
2018-Feb-22 00:30N 34°42' E 135°15'0 0.0
2018-Feb-22 00:00N 34°42' E 135°15'0 0.0
2018-Feb-21 23:30N 34°42' E 135°15'0 0.0
2018-Feb-21 23:00N 34°42' E 135°15'0 0.0
2018-Feb-21 22:30N 34°42' E 135°15'0 0.0
2018-Feb-21 22:00N 34°42' E 135°15'0 0.0
2018-Feb-21 21:30N 34°42' E 135°15'0 0.0
2018-Feb-21 21:00N 34°42' E 135°15'0 0.0
2018-Feb-21 20:30N 34°42' E 135°15'0 0.0
2018-Feb-21 20:00N 34°42' E 135°15'0 0.0
2018-Feb-21 19:30N 34°42' E 135°15'0 0.0
2018-Feb-21 19:00N 34°42' E 135°15'0 0.0
2018-Feb-21 18:30N 34°42' E 135°15'0 0.0
2018-Feb-21 18:00N 34°42' E 135°15'0 0.0
2018-Feb-21 17:30N 34°42' E 135°15'0 0.0
2018-Feb-21 17:00N 34°42' E 135°15'0 0.0
2018-Feb-21 16:30N 34°42' E 135°15'0 0.0
2018-Feb-21 16:00N 34°42' E 135°15'0 0.0
2018-Feb-21 15:30N 34°42' E 135°15'0 0.0
2018-Feb-21 15:00N 34°42' E 135°15'0 0.0
2018-Feb-21 14:30N 34°42' E 135°15'0 0.0
2018-Feb-21 14:00N 34°42' E 135°15'0 0.0
2018-Feb-21 13:30N 34°42' E 135°15'0 0.0
2018-Feb-21 13:00N 34°42' E 135°15'0 0.0
2018-Feb-21 12:27N 34°42' E 135°15'0 0.0
2018-Feb-21 12:00N 34°42' E 135°15'0 0.0
2018-Feb-21 11:30N 34°42' E 135°15'0 0.0
2018-Feb-21 11:00N 34°42' E 135°15'0 0.0
2018-Feb-21 10:30N 34°42' E 135°15'0 0.0
2018-Feb-21 10:00N 34°42' E 135°15'0 0.0
2018-Feb-21 09:30N 34°42' E 135°15'0 0.0
2018-Feb-21 09:00N 34°42' E 135°15'0 0.0
2018-Feb-21 08:30N 34°42' E 135°15'0 0.0
2018-Feb-21 08:00N 34°42' E 135°15'0 0.0
2018-Feb-21 07:30N 34°42' E 135°15'0 0.0
2018-Feb-21 07:00N 34°42' E 135°15'0 0.0
2018-Feb-21 06:30N 34°42' E 135°15'0 0.0
2018-Feb-21 06:00N 34°42' E 135°15'0 0.0
2018-Feb-21 05:30N 34°42' E 135°15'0 0.1
2018-Feb-21 05:00N 34°42' E 135°15'1 1.8
2018-Feb-21 04:30N 34°41' E 135°15'3 6.4
2018-Feb-21 04:00N 34°38' E 135°17'1 1.7
2018-Feb-21 03:30N 34°39' E 135°18'0 0.0
2018-Feb-21 03:00N 34°39' E 135°18'0 0.0
2018-Feb-21 02:30N 34°39' E 135°18'0 0.1
2018-Feb-21 02:00N 34°39' E 135°18'0 0.0
2018-Feb-21 01:30N 34°39' E 135°18'0 0.0
2018-Feb-21 01:00N 34°39' E 135°18'0 0.0
2018-Feb-21 00:30N 34°39' E 135°18'0 0.0
2018-Feb-21 00:00N 34°39' E 135°18'0 0.0
2018-Feb-20 23:30N 34°39' E 135°18'0 0.0
2018-Feb-20 23:00N 34°39' E 135°18'0 0.0
2018-Feb-20 22:30N 34°39' E 135°18'0 0.0
2018-Feb-20 22:00N 34°39' E 135°18'0 0.1
2018-Feb-20 21:30N 34°39' E 135°18'0 0.0
2018-Feb-20 21:00N 34°39' E 135°18'0 0.0
2018-Feb-20 20:30N 34°39' E 135°18'0 0.1
2018-Feb-20 20:00N 34°39' E 135°18'0 0.1
2018-Feb-20 19:29N 34°39' E 135°18'0 0.0
2018-Feb-20 19:00N 34°39' E 135°18'0 0.0
2018-Feb-20 18:30N 34°39' E 135°18'0 0.1
2018-Feb-20 18:00N 34°39' E 135°18'0 0.0
2018-Feb-20 17:30N 34°39' E 135°18'0 0.0
2018-Feb-20 17:00N 34°39' E 135°18'0 0.0
2018-Feb-20 16:30N 34°39' E 135°18'0 0.0
2018-Feb-20 16:00N 34°39' E 135°18'0 0.0
2018-Feb-20 15:30N 34°39' E 135°18'0 0.0
2018-Feb-20 15:00N 34°39' E 135°18'0 0.0
2018-Feb-20 14:30N 34°39' E 135°18'0 0.0
2018-Feb-20 13:59N 34°39' E 135°18'0 0.0
2018-Feb-20 13:29N 34°39' E 135°18'0 0.2
2018-Feb-20 13:00N 34°39' E 135°18'0 0.1
2018-Feb-20 12:30N 34°39' E 135°18'0 0.0
2018-Feb-20 12:00N 34°39' E 135°18'0 0.1
2018-Feb-20 11:30N 34°39' E 135°18'0 0.1
2018-Feb-20 11:00N 34°39' E 135°18'0 0.1
2018-Feb-20 10:30N 34°39' E 135°18'0 0.0
2018-Feb-20 09:59N 34°39' E 135°18'0 0.0
2018-Feb-20 09:30N 34°39' E 135°18'0 0.0
2018-Feb-20 08:59N 34°39' E 135°18'0 0.2
2018-Feb-20 08:31N 34°39' E 135°18'4 7.2
2018-Feb-20 08:00N 34°36' E 135°16'510.2
2018-Feb-20 07:31N 34°35' E 135°10'510.4
2018-Feb-20 07:01N 34°36' E 135°03'611.9
2018-Feb-20 06:30N 34°36' E 134°56'611.3
2018-Feb-20 06:00N 34°39' E 134°50'4 7.9
2018-Feb-20 05:30N 34°43' E 134°48'0 0.9
2018-Feb-20 04:59N 34°43' E 134°49'0 0.0
2018-Feb-20 04:29N 34°43' E 134°49'0 0.0
2018-Feb-20 03:59N 34°43' E 134°49'0 0.0
2018-Feb-20 03:29N 34°43' E 134°49'0 0.0
2018-Feb-20 02:59N 34°43' E 134°49'0 0.0
2018-Feb-20 02:26N 34°43' E 134°49'0 0.0
2018-Feb-20 01:59N 34°43' E 134°49'0 0.0
2018-Feb-20 01:29N 34°43' E 134°49'0 0.0
2018-Feb-20 00:59N 34°43' E 134°49'0 0.0
2018-Feb-20 00:29N 34°43' E 134°49'0 0.0
2018-Feb-19 23:59N 34°43' E 134°49'0 0.0
2018-Feb-19 23:29N 34°43' E 134°49'0 0.0
2018-Feb-19 22:59N 34°43' E 134°49'0 0.0
2018-Feb-19 22:26N 34°43' E 134°49'0 0.0
2018-Feb-19 21:56N 34°43' E 134°49'0 0.0
2018-Feb-19 21:17N 34°43' E 134°49'0 0.0
2018-Feb-19 20:59N 34°43' E 134°49'0 0.0
2018-Feb-19 20:29N 34°43' E 134°49'0 0.0
2018-Feb-19 19:59N 34°43' E 134°49'0 0.0
2018-Feb-19 19:29N 34°43' E 134°49'0 0.0
2018-Feb-19 18:59N 34°43' E 134°49'0 0.0
2018-Feb-19 18:29N 34°43' E 134°49'0 0.0
2018-Feb-19 17:59N 34°43' E 134°49'0 0.0
2018-Feb-19 17:26N 34°43' E 134°49'0 0.0
2018-Feb-19 16:56N 34°43' E 134°49'0 0.0
2018-Feb-19 16:29N 34°43' E 134°49'0 0.0
2018-Feb-19 15:59N 34°43' E 134°49'0 0.0
2018-Feb-19 15:23N 34°43' E 134°49'0 0.0
2018-Feb-19 14:56N 34°43' E 134°49'0 0.0
2018-Feb-19 14:20N 34°43' E 134°49'0 0.0
2018-Feb-19 13:56N 34°43' E 134°49'0 0.0
2018-Feb-19 13:29N 34°43' E 134°49'0 0.0
2018-Feb-19 12:59N 34°43' E 134°49'0 0.0
2018-Feb-19 12:29N 34°43' E 134°49'0 0.0
2018-Feb-19 11:59N 34°43' E 134°49'0 0.0
2018-Feb-19 11:26N 34°43' E 134°49'0 0.0
2018-Feb-19 10:59N 34°43' E 134°49'0 0.0
2018-Feb-19 10:29N 34°43' E 134°49'0 0.0
2018-Feb-19 09:59N 34°43' E 134°49'0 0.0
2018-Feb-19 09:29N 34°43' E 134°49'0 0.0
2018-Feb-19 08:59N 34°43' E 134°49'0 0.0
2018-Feb-19 08:20N 34°43' E 134°49'0 0.0
2018-Feb-19 07:56N 34°43' E 134°49'0 0.0
2018-Feb-19 07:29N 34°43' E 134°49'0 0.0
2018-Feb-19 06:59N 34°43' E 134°49'0 0.0
2018-Feb-19 06:29N 34°43' E 134°49'0 0.0
2018-Feb-19 05:59N 34°43' E 134°49'0 0.0
2018-Feb-19 05:29N 34°43' E 134°49'0 0.0
2018-Feb-19 04:59N 34°43' E 134°49'0 0.0
2018-Feb-19 04:29N 34°43' E 134°49'0 0.0
2018-Feb-19 03:56N 34°43' E 134°49'0 0.0
2018-Feb-19 03:29N 34°43' E 134°49'0 0.0
2018-Feb-19 02:59N 34°43' E 134°49'0 0.0
2018-Feb-19 02:29N 34°43' E 134°49'0 0.0
2018-Feb-19 01:59N 34°43' E 134°49'0 0.0
2018-Feb-19 01:29N 34°43' E 134°49'0 0.0
2018-Feb-19 00:59N 34°43' E 134°49'0 0.0
2018-Feb-19 00:29N 34°43' E 134°49'0 0.0
2018-Feb-18 23:59N 34°43' E 134°49'0 0.0
2018-Feb-18 23:29N 34°43' E 134°49'0 0.0
2018-Feb-18 22:59N 34°43' E 134°49'0 0.0
2018-Feb-18 22:26N 34°43' E 134°49'0 0.0
2018-Feb-18 21:59N 34°43' E 134°49'0 0.0
2018-Feb-18 21:23N 34°43' E 134°49'0 0.0
2018-Feb-18 20:56N 34°43' E 134°49'0 0.0
2018-Feb-18 20:29N 34°43' E 134°49'0 0.0
2018-Feb-18 19:59N 34°43' E 134°49'0 0.0
2018-Feb-18 19:29N 34°43' E 134°49'0 0.0
2018-Feb-18 18:59N 34°43' E 134°49'0 0.0
2018-Feb-18 18:29N 34°43' E 134°49'0 0.0
2018-Feb-18 17:59N 34°43' E 134°49'0 0.0
2018-Feb-18 17:29N 34°43' E 134°49'0 0.0
2018-Feb-18 16:59N 34°43' E 134°49'0 0.0
2018-Feb-18 16:29N 34°43' E 134°49'0 0.0
2018-Feb-18 15:59N 34°43' E 134°49'0 0.0
2018-Feb-18 15:26N 34°43' E 134°49'0 0.0
2018-Feb-18 14:59N 34°43' E 134°49'0 0.0
2018-Feb-18 14:29N 34°43' E 134°49'0 0.0
2018-Feb-18 13:59N 34°43' E 134°49'0 0.0
2018-Feb-18 13:29N 34°43' E 134°49'0 0.0
2018-Feb-18 12:56N 34°43' E 134°49'0 0.0
2018-Feb-18 12:29N 34°43' E 134°49'0 0.0
2018-Feb-18 11:59N 34°43' E 134°49'0 0.0
2018-Feb-18 11:29N 34°43' E 134°49'0 0.0
2018-Feb-18 10:59N 34°43' E 134°49'0 0.0
2018-Feb-18 10:29N 34°43' E 134°49'0 0.0
2018-Feb-18 09:59N 34°43' E 134°49'0 0.0
2018-Feb-18 09:29N 34°43' E 134°49'0 0.0
2018-Feb-18 08:56N 34°43' E 134°49'0 0.0
2018-Feb-18 08:26N 34°43' E 134°49'0 0.0
2018-Feb-18 07:59N 34°43' E 134°49'0 0.0
2018-Feb-18 07:29N 34°43' E 134°49'0 0.0
2018-Feb-18 06:59N 34°43' E 134°49'0 0.0
2018-Feb-18 06:29N 34°43' E 134°49'0 0.0
2018-Feb-18 05:59N 34°43' E 134°49'0 0.0
2018-Feb-18 05:26N 34°43' E 134°49'0 0.0
2018-Feb-18 04:59N 34°43' E 134°49'0 0.0
2018-Feb-18 04:29N 34°43' E 134°49'0 0.0
2018-Feb-18 03:59N 34°43' E 134°49'0 0.0
2018-Feb-18 03:26N 34°43' E 134°49'0 0.0
2018-Feb-18 02:59N 34°43' E 134°49'0 0.0
2018-Feb-18 02:26N 34°43' E 134°49'0 0.0
2018-Feb-18 01:59N 34°43' E 134°49'0 0.0
2018-Feb-18 01:26N 34°43' E 134°49'0 0.0
2018-Feb-18 00:59N 34°43' E 134°49'0 0.0
2018-Feb-18 00:29N 34°43' E 134°49'0 0.0
2018-Feb-17 23:59N 34°43' E 134°49'0 0.0
2018-Feb-17 23:29N 34°43' E 134°49'0 0.0
2018-Feb-17 22:59N 34°43' E 134°49'0 0.0
2018-Feb-17 22:29N 34°43' E 134°49'0 0.0
2018-Feb-17 21:59N 34°43' E 134°49'0 0.0
2018-Feb-17 21:26N 34°43' E 134°49'0 0.0
2018-Feb-17 20:56N 34°43' E 134°49'0 0.0
2018-Feb-17 20:29N 34°43' E 134°49'0 0.0
2018-Feb-17 19:59N 34°43' E 134°49'0 0.0
2018-Feb-17 19:26N 34°43' E 134°49'0 0.0
2018-Feb-17 18:59N 34°43' E 134°49'0 0.0
2018-Feb-17 18:26N 34°43' E 134°49'0 0.0
2018-Feb-17 17:59N 34°43' E 134°49'0 0.0
2018-Feb-17 17:29N 34°43' E 134°49'0 0.0
2018-Feb-17 16:59N 34°43' E 134°49'0 0.0
2018-Feb-17 16:29N 34°43' E 134°49'0 0.0
2018-Feb-17 15:59N 34°43' E 134°49'0 0.0
2018-Feb-17 15:29N 34°43' E 134°49'0 0.0
2018-Feb-17 14:59N 34°43' E 134°49'0 0.0
2018-Feb-17 14:29N 34°43' E 134°49'0 0.0
2018-Feb-17 13:59N 34°43' E 134°49'0 0.0
2018-Feb-17 13:23N 34°43' E 134°49'0 0.0
2018-Feb-17 12:59N 34°43' E 134°49'0 0.0
2018-Feb-17 12:29N 34°43' E 134°49'0 0.0
2018-Feb-17 11:59N 34°43' E 134°49'0 0.0
2018-Feb-17 11:29N 34°43' E 134°49'0 0.0
2018-Feb-17 10:56N 34°43' E 134°49'0 0.0
2018-Feb-17 10:29N 34°43' E 134°49'0 0.0
2018-Feb-17 09:59N 34°43' E 134°49'0 0.0
2018-Feb-17 09:29N 34°43' E 134°49'0 0.0
2018-Feb-17 08:56N 34°43' E 134°49'0 0.0
2018-Feb-17 08:23N 34°43' E 134°49'0 0.0
2018-Feb-17 07:59N 34°43' E 134°49'0 0.0
2018-Feb-17 07:29N 34°43' E 134°49'0 0.0
2018-Feb-17 06:59N 34°43' E 134°49'0 0.0
2018-Feb-17 06:29N 34°43' E 134°49'0 0.0
2018-Feb-17 05:59N 34°43' E 134°49'0 0.0
2018-Feb-17 05:29N 34°43' E 134°49'0 0.0
2018-Feb-17 04:59N 34°43' E 134°49'0 0.0
2018-Feb-17 04:29N 34°43' E 134°49'0 0.0
2018-Feb-17 03:56N 34°43' E 134°49'0 0.0
2018-Feb-17 03:29N 34°43' E 134°49'0 0.0
2018-Feb-17 02:59N 34°43' E 134°49'0 0.0
2018-Feb-17 02:29N 34°43' E 134°49'0 0.0
2018-Feb-17 01:59N 34°43' E 134°49'0 0.0
2018-Feb-17 01:29N 34°43' E 134°49'0 0.0
2018-Feb-17 00:59N 34°43' E 134°49'0 0.0
2018-Feb-17 00:29N 34°43' E 134°49'0 0.0
2018-Feb-16 23:59N 34°43' E 134°49'0 0.0
2018-Feb-16 23:29N 34°43' E 134°49'0 0.0
2018-Feb-16 22:59N 34°43' E 134°49'0 0.0
2018-Feb-16 22:29N 34°43' E 134°49'0 0.0
2018-Feb-16 21:59N 34°43' E 134°49'0 0.0
2018-Feb-16 21:29N 34°43' E 134°49'0 0.0
2018-Feb-16 20:59N 34°43' E 134°49'0 0.0
2018-Feb-16 20:29N 34°43' E 134°49'0 0.0
2018-Feb-16 19:59N 34°43' E 134°49'0 0.0
2018-Feb-16 19:29N 34°43' E 134°49'0 0.0
2018-Feb-16 18:59N 34°43' E 134°49'0 0.0
2018-Feb-16 18:29N 34°43' E 134°49'0 0.0
2018-Feb-16 17:59N 34°43' E 134°49'0 0.0
2018-Feb-16 17:29N 34°43' E 134°49'0 0.0
2018-Feb-16 16:59N 34°43' E 134°49'0 0.0
2018-Feb-16 16:29N 34°43' E 134°49'0 0.0
2018-Feb-16 15:59N 34°43' E 134°49'0 0.0
2018-Feb-16 15:29N 34°43' E 134°49'0 0.0
2018-Feb-16 14:59N 34°43' E 134°49'0 0.0
2018-Feb-16 14:29N 34°43' E 134°49'0 0.0
2018-Feb-16 13:59N 34°43' E 134°49'0 0.0
2018-Feb-16 13:29N 34°43' E 134°49'0 0.0
2018-Feb-16 12:56N 34°43' E 134°49'0 0.0
2018-Feb-16 12:29N 34°43' E 134°49'0 0.0
2018-Feb-16 11:59N 34°43' E 134°49'0 0.0
2018-Feb-16 11:29N 34°43' E 134°49'0 0.0
2018-Feb-16 10:59N 34°43' E 134°49'0 0.0
2018-Feb-16 10:30N 34°43' E 134°49'0 0.4
2018-Feb-16 09:59N 34°43' E 134°48'1 1.7
2018-Feb-16 09:30N 34°42' E 134°48'1 2.7
2018-Feb-16 09:00N 34°41' E 134°48'3 7.0
2018-Feb-16 08:31N 34°38' E 134°51'510.1
2018-Feb-16 08:00N 34°37' E 134°57'5 9.1
2018-Feb-16 07:30N 34°37' E 135°02'4 7.5
2018-Feb-16 07:00N 34°34' E 135°05'510.0
2018-Feb-16 06:31N 34°29' E 135°04'510.4
2018-Feb-16 06:01N 34°24' E 135°03'510.0
2018-Feb-16 05:31N 34°20' E 134°60'5 9.3
2018-Feb-16 05:01N 34°15' E 134°59'510.1
2018-Feb-16 04:30N 34°10' E 134°58'510.0
2018-Feb-16 04:01N 34°05' E 134°57'510.1
2018-Feb-16 03:31N 34°00' E 134°56'510.3
2018-Feb-16 02:59N 33°55' E 134°54'510.0
2018-Feb-16 02:29N 33°50' E 134°52'  
Track history (hours):
 
Tides and Currents Weather Stations Pressure Air Temp Water Temp Dewpoint Dewpoint Depression Visibility Wind Speed Wind Dir Waves Ship Positions

Silver Sailing

Last reported at 2018-Feb-23 05:00 UTC. Time now 2018-Feb-23 05:09 UTC.
Position N 33°49' E 131°30'.

Length 110 m; draft 7.8 m.

Type: Cargo ship. MMSI: 477861300.

Date/timePositionNaut miles runAvg speedWind from/ knotsBaromVisibWave heightAir tempDewpointWater temp
2018-Feb-23 05:00N 33°49' E 131°30'5 9.4
2018-Feb-23 04:30N 33°48' E 131°36'5 9.7
2018-Feb-23 04:00N 33°47' E 131°42'5 9.6
2018-Feb-23 03:30N 33°46' E 131°47'22 9.7
2018-Feb-23 01:12N 33°43' E 132°14'210.0
2018-Feb-23 00:58N 33°44' E 132°17'910.0
2018-Feb-23 00:07N 33°47' E 132°26'310.2
2018-Feb-22 23:51N 33°48' E 132°29'410.2
2018-Feb-22 23:30N 33°50' E 132°33'510.7
2018-Feb-22 23:00N 33°54' E 132°37'511.1
2018-Feb-22 22:31N 33°58' E 132°42'81 9.4
2018-Feb-22 13:57N 34°24' E 134°14'510.4
2018-Feb-22 13:30N 34°25' E 134°20'510.1
2018-Feb-22 13:00N 34°26' E 134°26'510.0
2018-Feb-22 12:30N 34°28' E 134°32'5 9.8
2018-Feb-22 12:00N 34°30' E 134°37'5 9.5
2018-Feb-22 11:30N 34°32' E 134°42'5 9.2
2018-Feb-22 11:00N 34°33' E 134°48'4 8.3
2018-Feb-22 10:31N 34°35' E 134°52'4 7.5
2018-Feb-22 10:01N 34°37' E 134°56'3 6.8
2018-Feb-22 09:30N 34°37' E 135°00'3 6.1
2018-Feb-22 09:01N 34°36' E 135°04'5 9.0
2018-Feb-22 08:30N 34°36' E 135°09'5 9.1
2018-Feb-22 08:00N 34°37' E 135°15'2 4.8
2018-Feb-22 07:30N 34°39' E 135°16'3 6.7
2018-Feb-22 07:00N 34°42' E 135°15'0 0.1
2018-Feb-22 06:30N 34°42' E 135°15'0 0.0
2018-Feb-22 06:00N 34°42' E 135°15'0 0.0
2018-Feb-22 05:30N 34°42' E 135°15'0 0.0
2018-Feb-22 05:00N 34°42' E 135°15'0 0.0
2018-Feb-22 04:30N 34°42' E 135°15'0 0.0
2018-Feb-22 04:00N 34°42' E 135°15'0 0.0
2018-Feb-22 03:30N 34°42' E 135°15'0 0.0
2018-Feb-22 03:00N 34°42' E 135°15'0 0.0
2018-Feb-22 02:27N 34°42' E 135°15'0 0.0
2018-Feb-22 02:00N 34°42' E 135°15'0 0.0
2018-Feb-22 01:30N 34°42' E 135°15'0 0.0
2018-Feb-22 01:00N 34°42' E 135°15'0 0.0
2018-Feb-22 00:30N 34°42' E 135°15'0 0.0
2018-Feb-22 00:00N 34°42' E 135°15'0 0.0
2018-Feb-21 23:30N 34°42' E 135°15'0 0.0
2018-Feb-21 23:00N 34°42' E 135°15'0 0.0
2018-Feb-21 22:30N 34°42' E 135°15'0 0.0
2018-Feb-21 22:00N 34°42' E 135°15'0 0.0
2018-Feb-21 21:30N 34°42' E 135°15'0 0.0
2018-Feb-21 21:00N 34°42' E 135°15'0 0.0
2018-Feb-21 20:30N 34°42' E 135°15'0 0.0
2018-Feb-21 20:00N 34°42' E 135°15'0 0.0
2018-Feb-21 19:30N 34°42' E 135°15'0 0.0
2018-Feb-21 19:00N 34°42' E 135°15'0 0.0
2018-Feb-21 18:30N 34°42' E 135°15'0 0.0
2018-Feb-21 18:00N 34°42' E 135°15'0 0.0
2018-Feb-21 17:30N 34°42' E 135°15'0 0.0
2018-Feb-21 17:00N 34°42' E 135°15'0 0.0
2018-Feb-21 16:30N 34°42' E 135°15'0 0.0
2018-Feb-21 16:00N 34°42' E 135°15'0 0.0
2018-Feb-21 15:30N 34°42' E 135°15'0 0.0
2018-Feb-21 15:00N 34°42' E 135°15'0 0.0
2018-Feb-21 14:30N 34°42' E 135°15'0 0.0
2018-Feb-21 14:00N 34°42' E 135°15'0 0.0
2018-Feb-21 13:30N 34°42' E 135°15'0 0.0
2018-Feb-21 13:00N 34°42' E 135°15'0 0.0
2018-Feb-21 12:27N 34°42' E 135°15'0 0.0
2018-Feb-21 12:00N 34°42' E 135°15'0 0.0
2018-Feb-21 11:30N 34°42' E 135°15'0 0.0
2018-Feb-21 11:00N 34°42' E 135°15'0 0.0
2018-Feb-21 10:30N 34°42' E 135°15'0 0.0
2018-Feb-21 10:00N 34°42' E 135°15'0 0.0
2018-Feb-21 09:30N 34°42' E 135°15'0 0.0
2018-Feb-21 09:00N 34°42' E 135°15'0 0.0
2018-Feb-21 08:30N 34°42' E 135°15'0 0.0
2018-Feb-21 08:00N 34°42' E 135°15'0 0.0
2018-Feb-21 07:30N 34°42' E 135°15'0 0.0
2018-Feb-21 07:00N 34°42' E 135°15'0 0.0
2018-Feb-21 06:30N 34°42' E 135°15'0 0.0
2018-Feb-21 06:00N 34°42' E 135°15'0 0.0
2018-Feb-21 05:30N 34°42' E 135°15'0 0.1
2018-Feb-21 05:00N 34°42' E 135°15'1 1.8
2018-Feb-21 04:30N 34°41' E 135°15'3 6.4
2018-Feb-21 04:00N 34°38' E 135°17'1 1.7
2018-Feb-21 03:30N 34°39' E 135°18'0 0.0
2018-Feb-21 03:00N 34°39' E 135°18'0 0.0
2018-Feb-21 02:30N 34°39' E 135°18'0 0.1
2018-Feb-21 02:00N 34°39' E 135°18'0 0.0
2018-Feb-21 01:30N 34°39' E 135°18'0 0.0
2018-Feb-21 01:00N 34°39' E 135°18'0 0.0
2018-Feb-21 00:30N 34°39' E 135°18'0 0.0
2018-Feb-21 00:00N 34°39' E 135°18'0 0.0
2018-Feb-20 23:30N 34°39' E 135°18'0 0.0
2018-Feb-20 23:00N 34°39' E 135°18'0 0.0
2018-Feb-20 22:30N 34°39' E 135°18'0 0.0
2018-Feb-20 22:00N 34°39' E 135°18'0 0.1
2018-Feb-20 21:30N 34°39' E 135°18'0 0.0
2018-Feb-20 21:00N 34°39' E 135°18'0 0.0
2018-Feb-20 20:30N 34°39' E 135°18'0 0.1
2018-Feb-20 20:00N 34°39' E 135°18'0 0.1
2018-Feb-20 19:29N 34°39' E 135°18'0 0.0
2018-Feb-20 19:00N 34°39' E 135°18'0 0.0
2018-Feb-20 18:30N 34°39' E 135°18'0 0.1
2018-Feb-20 18:00N 34°39' E 135°18'0 0.0
2018-Feb-20 17:30N 34°39' E 135°18'0 0.0
2018-Feb-20 17:00N 34°39' E 135°18'0 0.0
2018-Feb-20 16:30N 34°39' E 135°18'0 0.0
2018-Feb-20 16:00N 34°39' E 135°18'0 0.0
2018-Feb-20 15:30N 34°39' E 135°18'0 0.0
2018-Feb-20 15:00N 34°39' E 135°18'0 0.0
2018-Feb-20 14:30N 34°39' E 135°18'0 0.0
2018-Feb-20 13:59N 34°39' E 135°18'0 0.0
2018-Feb-20 13:29N 34°39' E 135°18'0 0.2
2018-Feb-20 13:00N 34°39' E 135°18'0 0.1
2018-Feb-20 12:30N 34°39' E 135°18'0 0.0
2018-Feb-20 12:00N 34°39' E 135°18'0 0.1
2018-Feb-20 11:30N 34°39' E 135°18'0 0.1
2018-Feb-20 11:00N 34°39' E 135°18'0 0.1
2018-Feb-20 10:30N 34°39' E 135°18'0 0.0
2018-Feb-20 09:59N 34°39' E 135°18'0 0.0
2018-Feb-20 09:30N 34°39' E 135°18'0 0.0
2018-Feb-20 08:59N 34°39' E 135°18'0 0.2
2018-Feb-20 08:31N 34°39' E 135°18'4 7.2
2018-Feb-20 08:00N 34°36' E 135°16'510.2
2018-Feb-20 07:31N 34°35' E 135°10'510.4
2018-Feb-20 07:01N 34°36' E 135°03'611.9
2018-Feb-20 06:30N 34°36' E 134°56'611.3
2018-Feb-20 06:00N 34°39' E 134°50'4 7.9
2018-Feb-20 05:30N 34°43' E 134°48'0 0.9
2018-Feb-20 04:59N 34°43' E 134°49'0 0.0
2018-Feb-20 04:29N 34°43' E 134°49'0 0.0
2018-Feb-20 03:59N 34°43' E 134°49'0 0.0
2018-Feb-20 03:29N 34°43' E 134°49'0 0.0
2018-Feb-20 02:59N 34°43' E 134°49'0 0.0
2018-Feb-20 02:26N 34°43' E 134°49'0 0.0
2018-Feb-20 01:59N 34°43' E 134°49'0 0.0
2018-Feb-20 01:29N 34°43' E 134°49'0 0.0
2018-Feb-20 00:59N 34°43' E 134°49'0 0.0
2018-Feb-20 00:29N 34°43' E 134°49'0 0.0
2018-Feb-19 23:59N 34°43' E 134°49'0 0.0
2018-Feb-19 23:29N 34°43' E 134°49'0 0.0
2018-Feb-19 22:59N 34°43' E 134°49'0 0.0
2018-Feb-19 22:26N 34°43' E 134°49'0 0.0
2018-Feb-19 21:56N 34°43' E 134°49'0 0.0
2018-Feb-19 21:17N 34°43' E 134°49'0 0.0
2018-Feb-19 20:59N 34°43' E 134°49'0 0.0
2018-Feb-19 20:29N 34°43' E 134°49'0 0.0
2018-Feb-19 19:59N 34°43' E 134°49'0 0.0
2018-Feb-19 19:29N 34°43' E 134°49'0 0.0
2018-Feb-19 18:59N 34°43' E 134°49'0 0.0
2018-Feb-19 18:29N 34°43' E 134°49'0 0.0
2018-Feb-19 17:59N 34°43' E 134°49'0 0.0
2018-Feb-19 17:26N 34°43' E 134°49'0 0.0
2018-Feb-19 16:56N 34°43' E 134°49'0 0.0
2018-Feb-19 16:29N 34°43' E 134°49'0 0.0
2018-Feb-19 15:59N 34°43' E 134°49'0 0.0
2018-Feb-19 15:23N 34°43' E 134°49'0 0.0
2018-Feb-19 14:56N 34°43' E 134°49'0 0.0
2018-Feb-19 14:20N 34°43' E 134°49'0 0.0
2018-Feb-19 13:56N 34°43' E 134°49'0 0.0
2018-Feb-19 13:29N 34°43' E 134°49'0 0.0
2018-Feb-19 12:59N 34°43' E 134°49'0 0.0
2018-Feb-19 12:29N 34°43' E 134°49'0 0.0
2018-Feb-19 11:59N 34°43' E 134°49'0 0.0
2018-Feb-19 11:26N 34°43' E 134°49'0 0.0
2018-Feb-19 10:59N 34°43' E 134°49'0 0.0
2018-Feb-19 10:29N 34°43' E 134°49'0 0.0
2018-Feb-19 09:59N 34°43' E 134°49'0 0.0
2018-Feb-19 09:29N 34°43' E 134°49'0 0.0
2018-Feb-19 08:59N 34°43' E 134°49'0 0.0
2018-Feb-19 08:20N 34°43' E 134°49'0 0.0
2018-Feb-19 07:56N 34°43' E 134°49'0 0.0
2018-Feb-19 07:29N 34°43' E 134°49'0 0.0
2018-Feb-19 06:59N 34°43' E 134°49'0 0.0
2018-Feb-19 06:29N 34°43' E 134°49'0 0.0
2018-Feb-19 05:59N 34°43' E 134°49'0 0.0
2018-Feb-19 05:29N 34°43' E 134°49'0 0.0
2018-Feb-19 04:59N 34°43' E 134°49'0 0.0
2018-Feb-19 04:29N 34°43' E 134°49'0 0.0
2018-Feb-19 03:56N 34°43' E 134°49'0 0.0
2018-Feb-19 03:29N 34°43' E 134°49'0 0.0
2018-Feb-19 02:59N 34°43' E 134°49'0 0.0
2018-Feb-19 02:29N 34°43' E 134°49'0 0.0
2018-Feb-19 01:59N 34°43' E 134°49'0 0.0
2018-Feb-19 01:29N 34°43' E 134°49'0 0.0
2018-Feb-19 00:59N 34°43' E 134°49'0 0.0
2018-Feb-19 00:29N 34°43' E 134°49'0 0.0
2018-Feb-18 23:59N 34°43' E 134°49'0 0.0
2018-Feb-18 23:29N 34°43' E 134°49'0 0.0
2018-Feb-18 22:59N 34°43' E 134°49'0 0.0
2018-Feb-18 22:26N 34°43' E 134°49'0 0.0
2018-Feb-18 21:59N 34°43' E 134°49'0 0.0
2018-Feb-18 21:23N 34°43' E 134°49'0 0.0
2018-Feb-18 20:56N 34°43' E 134°49'0 0.0
2018-Feb-18 20:29N 34°43' E 134°49'0 0.0
2018-Feb-18 19:59N 34°43' E 134°49'0 0.0
2018-Feb-18 19:29N 34°43' E 134°49'0 0.0
2018-Feb-18 18:59N 34°43' E 134°49'0 0.0
2018-Feb-18 18:29N 34°43' E 134°49'0 0.0
2018-Feb-18 17:59N 34°43' E 134°49'0 0.0
2018-Feb-18 17:29N 34°43' E 134°49'0 0.0
2018-Feb-18 16:59N 34°43' E 134°49'0 0.0
2018-Feb-18 16:29N 34°43' E 134°49'0 0.0
2018-Feb-18 15:59N 34°43' E 134°49'0 0.0
2018-Feb-18 15:26N 34°43' E 134°49'0 0.0
2018-Feb-18 14:59N 34°43' E 134°49'0 0.0
2018-Feb-18 14:29N 34°43' E 134°49'0 0.0
2018-Feb-18 13:59N 34°43' E 134°49'0 0.0
2018-Feb-18 13:29N 34°43' E 134°49'0 0.0
2018-Feb-18 12:56N 34°43' E 134°49'0 0.0
2018-Feb-18 12:29N 34°43' E 134°49'0 0.0
2018-Feb-18 11:59N 34°43' E 134°49'0 0.0
2018-Feb-18 11:29N 34°43' E 134°49'0 0.0
2018-Feb-18 10:59N 34°43' E 134°49'0 0.0
2018-Feb-18 10:29N 34°43' E 134°49'0 0.0
2018-Feb-18 09:59N 34°43' E 134°49'0 0.0
2018-Feb-18 09:29N 34°43' E 134°49'0 0.0
2018-Feb-18 08:56N 34°43' E 134°49'0 0.0
2018-Feb-18 08:26N 34°43' E 134°49'0 0.0
2018-Feb-18 07:59N 34°43' E 134°49'0 0.0
2018-Feb-18 07:29N 34°43' E 134°49'0 0.0
2018-Feb-18 06:59N 34°43' E 134°49'0 0.0
2018-Feb-18 06:29N 34°43' E 134°49'0 0.0
2018-Feb-18 05:59N 34°43' E 134°49'0 0.0
2018-Feb-18 05:26N 34°43' E 134°49'0 0.0
2018-Feb-18 04:59N 34°43' E 134°49'0 0.0
2018-Feb-18 04:29N 34°43' E 134°49'0 0.0
2018-Feb-18 03:59N 34°43' E 134°49'0 0.0
2018-Feb-18 03:26N 34°43' E 134°49'0 0.0
2018-Feb-18 02:59N 34°43' E 134°49'0 0.0
2018-Feb-18 02:26N 34°43' E 134°49'0 0.0
2018-Feb-18 01:59N 34°43' E 134°49'0 0.0
2018-Feb-18 01:26N 34°43' E 134°49'0 0.0
2018-Feb-18 00:59N 34°43' E 134°49'0 0.0
2018-Feb-18 00:29N 34°43' E 134°49'0 0.0
2018-Feb-17 23:59N 34°43' E 134°49'0 0.0
2018-Feb-17 23:29N 34°43' E 134°49'0 0.0
2018-Feb-17 22:59N 34°43' E 134°49'0 0.0
2018-Feb-17 22:29N 34°43' E 134°49'0 0.0
2018-Feb-17 21:59N 34°43' E 134°49'0 0.0
2018-Feb-17 21:26N 34°43' E 134°49'0 0.0
2018-Feb-17 20:56N 34°43' E 134°49'0 0.0
2018-Feb-17 20:29N 34°43' E 134°49'0 0.0
2018-Feb-17 19:59N 34°43' E 134°49'0 0.0
2018-Feb-17 19:26N 34°43' E 134°49'0 0.0
2018-Feb-17 18:59N 34°43' E 134°49'0 0.0
2018-Feb-17 18:26N 34°43' E 134°49'0 0.0
2018-Feb-17 17:59N 34°43' E 134°49'0 0.0
2018-Feb-17 17:29N 34°43' E 134°49'0 0.0
2018-Feb-17 16:59N 34°43' E 134°49'0 0.0
2018-Feb-17 16:29N 34°43' E 134°49'0 0.0
2018-Feb-17 15:59N 34°43' E 134°49'0 0.0
2018-Feb-17 15:29N 34°43' E 134°49'0 0.0
2018-Feb-17 14:59N 34°43' E 134°49'0 0.0
2018-Feb-17 14:29N 34°43' E 134°49'0 0.0
2018-Feb-17 13:59N 34°43' E 134°49'0 0.0
2018-Feb-17 13:23N 34°43' E 134°49'0 0.0
2018-Feb-17 12:59N 34°43' E 134°49'0 0.0
2018-Feb-17 12:29N 34°43' E 134°49'0 0.0
2018-Feb-17 11:59N 34°43' E 134°49'0 0.0
2018-Feb-17 11:29N 34°43' E 134°49'0 0.0
2018-Feb-17 10:56N 34°43' E 134°49'0 0.0
2018-Feb-17 10:29N 34°43' E 134°49'0 0.0
2018-Feb-17 09:59N 34°43' E 134°49'0 0.0
2018-Feb-17 09:29N 34°43' E 134°49'0 0.0
2018-Feb-17 08:56N 34°43' E 134°49'0 0.0
2018-Feb-17 08:23N 34°43' E 134°49'0 0.0
2018-Feb-17 07:59N 34°43' E 134°49'0 0.0
2018-Feb-17 07:29N 34°43' E 134°49'0 0.0
2018-Feb-17 06:59N 34°43' E 134°49'0 0.0
2018-Feb-17 06:29N 34°43' E 134°49'0 0.0
2018-Feb-17 05:59N 34°43' E 134°49'0 0.0
2018-Feb-17 05:29N 34°43' E 134°49'0 0.0
2018-Feb-17 04:59N 34°43' E 134°49'0 0.0
2018-Feb-17 04:29N 34°43' E 134°49'0 0.0
2018-Feb-17 03:56N 34°43' E 134°49'0 0.0
2018-Feb-17 03:29N 34°43' E 134°49'0 0.0
2018-Feb-17 02:59N 34°43' E 134°49'0 0.0
2018-Feb-17 02:29N 34°43' E 134°49'0 0.0
2018-Feb-17 01:59N 34°43' E 134°49'0 0.0
2018-Feb-17 01:29N 34°43' E 134°49'0 0.0
2018-Feb-17 00:59N 34°43' E 134°49'0 0.0
2018-Feb-17 00:29N 34°43' E 134°49'0 0.0
2018-Feb-16 23:59N 34°43' E 134°49'0 0.0
2018-Feb-16 23:29N 34°43' E 134°49'0 0.0
2018-Feb-16 22:59N 34°43' E 134°49'0 0.0
2018-Feb-16 22:29N 34°43' E 134°49'0 0.0
2018-Feb-16 21:59N 34°43' E 134°49'0 0.0
2018-Feb-16 21:29N 34°43' E 134°49'0 0.0
2018-Feb-16 20:59N 34°43' E 134°49'0 0.0
2018-Feb-16 20:29N 34°43' E 134°49'0 0.0
2018-Feb-16 19:59N 34°43' E 134°49'0 0.0
2018-Feb-16 19:29N 34°43' E 134°49'0 0.0
2018-Feb-16 18:59N 34°43' E 134°49'0 0.0
2018-Feb-16 18:29N 34°43' E 134°49'0 0.0
2018-Feb-16 17:59N 34°43' E 134°49'0 0.0
2018-Feb-16 17:29N 34°43' E 134°49'0 0.0
2018-Feb-16 16:59N 34°43' E 134°49'0 0.0
2018-Feb-16 16:29N 34°43' E 134°49'0 0.0
2018-Feb-16 15:59N 34°43' E 134°49'0 0.0
2018-Feb-16 15:29N 34°43' E 134°49'0 0.0
2018-Feb-16 14:59N 34°43' E 134°49'0 0.0
2018-Feb-16 14:29N 34°43' E 134°49'0 0.0
2018-Feb-16 13:59N 34°43' E 134°49'0 0.0
2018-Feb-16 13:29N 34°43' E 134°49'0 0.0
2018-Feb-16 12:56N 34°43' E 134°49'0 0.0
2018-Feb-16 12:29N 34°43' E 134°49'0 0.0
2018-Feb-16 11:59N 34°43' E 134°49'0 0.0
2018-Feb-16 11:29N 34°43' E 134°49'0 0.0
2018-Feb-16 10:59N 34°43' E 134°49'0 0.0
2018-Feb-16 10:30N 34°43' E 134°49'0 0.4
2018-Feb-16 09:59N 34°43' E 134°48'1 1.7
2018-Feb-16 09:30N 34°42' E 134°48'1 2.7
2018-Feb-16 09:00N 34°41' E 134°48'3 7.0
2018-Feb-16 08:31N 34°38' E 134°51'510.1
2018-Feb-16 08:00N 34°37' E 134°57'5 9.1
2018-Feb-16 07:30N 34°37' E 135°02'4 7.5
2018-Feb-16 07:00N 34°34' E 135°05'510.0
2018-Feb-16 06:31N 34°29' E 135°04'510.4
2018-Feb-16 06:01N 34°24' E 135°03'510.0
2018-Feb-16 05:31N 34°20' E 134°60'5 9.3
2018-Feb-16 05:01N 34°15' E 134°59'510.1
2018-Feb-16 04:30N 34°10' E 134°58'510.0
2018-Feb-16 04:01N 34°05' E 134°57'510.1
2018-Feb-16 03:31N 34°00' E 134°56'510.3
2018-Feb-16 02:59N 33°55' E 134°54'510.0
2018-Feb-16 02:29N 33°50' E 134°52'  

Dump ship's entire track history